createdAt,value
2022-08-29T00:05:45.078Z,3.77
2022-08-29T00:08:18.053Z,3.50
2022-08-29T00:15:07.899Z,3.30
2022-08-29T00:17:35.556Z,3.63
2022-08-29T00:20:06.009Z,3.60
2022-08-29T00:22:33.722Z,3.40
2022-08-29T00:25:01.303Z,3.27
2022-08-29T00:27:29.313Z,3.20
2022-08-29T00:30:14.532Z,3.57
2022-08-29T00:33:01.233Z,3.47
2022-08-29T00:35:35.025Z,3.83
2022-08-29T00:41:44.978Z,3.53
2022-08-29T00:44:12.778Z,3.30
2022-08-29T00:51:01.413Z,3.80
2022-08-29T00:53:44.495Z,3.30
2022-08-29T01:00:33.587Z,3.63
2022-08-29T01:03:01.060Z,3.47
2022-08-29T01:05:28.682Z,3.67
2022-08-29T01:07:56.021Z,3.67
2022-08-29T01:10:23.550Z,3.40
2022-08-29T01:12:50.804Z,3.20
2022-08-29T01:19:39.561Z,3.37
2022-08-29T01:22:30.979Z,3.30
2022-08-29T01:25:02.018Z,3.70
2022-08-29T01:35:38.444Z,3.53
2022-08-29T01:38:05.703Z,3.30
2022-08-29T01:40:35.610Z,3.37
2022-08-29T01:43:02.796Z,3.43
2022-08-29T01:45:30.097Z,3.43
2022-08-29T01:47:59.911Z,3.33
2022-08-29T01:50:33.160Z,3.63
2022-08-29T01:53:00.306Z,3.60
2022-08-29T01:55:31.487Z,3.30
2022-08-29T01:57:59.148Z,3.67
2022-08-29T02:00:26.399Z,3.30
2022-08-29T02:02:53.843Z,3.33
2022-08-29T02:09:30.996Z,3.47
2022-08-29T02:12:00.218Z,3.73
2022-08-29T02:14:27.369Z,3.77
2022-08-29T02:16:54.571Z,3.70
2022-08-29T02:24:25.738Z,3.07
2022-08-29T02:31:04.565Z,3.50
2022-08-29T02:33:32.679Z,4.00
2022-08-29T02:35:59.973Z,3.60
2022-08-29T02:38:29.447Z,3.60
2022-08-29T02:40:57.205Z,3.60
2022-08-29T02:47:16.278Z,3.80
2022-08-29T02:49:43.829Z,3.60
2022-08-29T02:55:53.294Z,3.50
2022-08-29T02:58:22.989Z,3.47
2022-08-29T03:00:51.419Z,3.50
2022-08-29T03:03:19.376Z,2.97
2022-08-29T03:05:47.242Z,3.20
2022-08-29T03:08:15.628Z,3.30
2022-08-29T03:10:43.961Z,3.67
2022-08-29T03:13:11.767Z,3.17
2022-08-29T03:15:39.864Z,3.33
2022-08-29T03:18:07.757Z,3.53
2022-08-29T03:20:38.021Z,3.20
2022-08-29T03:23:06.148Z,3.73
2022-08-29T03:25:35.471Z,3.37
2022-08-29T03:28:04.113Z,3.87
2022-08-29T03:30:31.514Z,3.30
2022-08-29T03:32:58.782Z,3.90
2022-08-29T03:35:26.144Z,3.17
2022-08-29T03:37:55.953Z,3.20
2022-08-29T03:40:24.928Z,3.50
2022-08-29T03:42:53.845Z,3.30
2022-08-29T03:45:22.940Z,3.50
2022-08-29T03:47:50.291Z,3.50
2022-08-29T03:50:17.810Z,3.60
2022-08-29T03:52:45.112Z,3.17
2022-08-29T03:55:13.771Z,3.20
2022-08-29T03:57:41.354Z,3.20
2022-08-29T04:00:12.822Z,3.10
2022-08-29T04:02:40.927Z,3.30
2022-08-29T04:05:09.313Z,3.60
2022-08-29T04:07:52.878Z,3.27
2022-08-29T04:10:25.462Z,3.27
2022-08-29T04:12:55.039Z,3.20
2022-08-29T04:15:25.176Z,3.27
2022-08-29T04:17:55.057Z,3.10
2022-08-29T04:20:32.780Z,3.77
2022-08-29T04:23:00.758Z,3.57
2022-08-29T04:25:33.912Z,3.40
2022-08-29T04:28:13.967Z,3.63
2022-08-29T04:30:51.861Z,3.50
2022-08-29T04:33:24.318Z,3.80
2022-08-29T04:35:52.938Z,3.57
2022-08-29T04:38:20.410Z,4.07
2022-08-29T04:40:48.154Z,3.90
2022-08-29T04:43:15.412Z,3.73
2022-08-29T04:45:42.633Z,3.83
2022-08-29T04:48:10.203Z,4.57
2022-08-29T04:50:37.750Z,5.00
2022-08-29T04:53:05.326Z,4.60
2022-08-29T04:55:32.720Z,4.67
2022-08-29T04:58:00.515Z,3.90
2022-08-29T05:00:29.271Z,4.10
2022-08-29T05:02:58.131Z,4.20
2022-08-29T05:05:25.845Z,3.90
2022-08-29T05:07:53.065Z,4.23
2022-08-29T05:10:21.922Z,4.40
2022-08-29T05:12:49.216Z,3.77
2022-08-29T05:15:19.723Z,4.50
2022-08-29T05:17:47.064Z,3.80
2022-08-29T05:20:14.836Z,3.67
2022-08-29T05:22:42.823Z,3.77
2022-08-29T05:25:18.058Z,4.90
2022-08-29T05:27:46.932Z,6.63
2022-08-29T05:30:16.518Z,5.70
2022-08-29T05:33:01.606Z,5.40
2022-08-29T05:35:28.799Z,6.07
2022-08-29T05:37:56.108Z,5.20
2022-08-29T05:40:23.417Z,4.70
2022-08-29T05:42:50.654Z,4.10
2022-08-29T05:45:18.001Z,4.33
2022-08-29T05:47:45.300Z,4.57
2022-08-29T05:50:12.896Z,4.00
2022-08-29T05:52:41.408Z,4.77
2022-08-29T05:55:09.231Z,5.87
2022-08-29T05:57:36.848Z,6.00
2022-08-29T06:00:07.081Z,5.60
2022-08-29T06:02:34.753Z,5.40
2022-08-29T06:05:02.072Z,5.67
2022-08-29T06:07:29.470Z,5.37
2022-08-29T06:10:00.380Z,4.67
2022-08-29T06:12:31.288Z,4.20
2022-08-29T06:14:58.499Z,5.03
2022-08-29T06:17:25.834Z,5.33
2022-08-29T06:19:53.012Z,4.73
2022-08-29T06:22:20.407Z,5.20
2022-08-29T06:24:47.814Z,5.27
2022-08-29T06:27:16.108Z,5.40
2022-08-29T06:29:43.920Z,5.47
2022-08-29T06:32:13.372Z,5.40
2022-08-29T06:34:41.134Z,5.63
2022-08-29T06:37:08.407Z,5.70
2022-08-29T06:39:35.680Z,5.97
2022-08-29T06:42:03.085Z,5.93
2022-08-29T06:44:30.924Z,6.63
2022-08-29T06:46:59.181Z,5.93
2022-08-29T06:49:27.556Z,6.53
2022-08-29T06:51:58.306Z,5.87
2022-08-29T06:54:28.937Z,5.70
2022-08-29T06:56:58.155Z,5.50
2022-08-29T06:59:26.799Z,5.13
2022-08-29T07:01:54.460Z,4.60
2022-08-29T07:04:21.810Z,4.03
2022-08-29T07:06:50.362Z,4.87
2022-08-29T07:09:18.102Z,4.70
2022-08-29T07:11:53.485Z,4.40
2022-08-29T07:14:29.917Z,4.17
2022-08-29T07:17:01.928Z,4.47
2022-08-29T07:19:29.475Z,4.10
2022-08-29T07:21:59.357Z,4.67
2022-08-29T07:24:27.462Z,4.10
2022-08-29T07:31:06.336Z,4.13
2022-08-29T07:33:35.183Z,3.80
2022-08-29T07:36:03.238Z,3.60
2022-08-29T07:38:31.178Z,3.70
2022-08-29T07:41:02.069Z,3.93
2022-08-29T07:43:29.520Z,3.40
2022-08-29T07:45:58.117Z,3.90
2022-08-29T07:48:26.263Z,3.80
2022-08-29T07:50:53.639Z,3.80
2022-08-29T07:53:20.779Z,4.07
2022-08-29T07:55:48.003Z,3.63
2022-08-29T07:58:15.359Z,3.33
2022-08-29T08:00:42.698Z,3.80
2022-08-29T08:03:09.947Z,4.03
2022-08-29T08:05:37.551Z,4.17
2022-08-29T08:08:08.884Z,3.97
2022-08-29T08:10:42.096Z,3.77
2022-08-29T08:13:09.360Z,3.53
2022-08-29T08:15:39.653Z,3.70
2022-08-29T08:18:07.111Z,3.40
2022-08-29T08:20:35.283Z,3.70
2022-08-29T08:23:02.546Z,3.47
2022-08-29T08:25:29.933Z,3.00
2022-08-29T08:27:57.220Z,3.23
2022-08-29T08:30:25.665Z,2.93
2022-08-29T08:32:54.988Z,3.03
2022-08-29T08:35:22.940Z,3.10
2022-08-29T08:37:50.417Z,2.70
2022-08-29T08:40:26.131Z,2.60
2022-08-29T08:43:00.803Z,2.50
2022-08-29T08:45:43.488Z,2.00
2022-08-29T08:48:26.309Z,2.50
2022-08-29T08:51:34.056Z,2.50
2022-08-29T08:54:07.498Z,2.63
2022-08-29T08:56:47.539Z,2.40
2022-08-29T08:59:26.329Z,2.53
2022-08-29T09:02:25.042Z,2.70
2022-08-29T09:05:30.980Z,2.50
2022-08-29T09:08:16.031Z,2.53
2022-08-29T09:10:56.664Z,2.53
2022-08-29T09:14:13.966Z,2.38
2022-08-29T09:16:48.706Z,2.00
2022-08-29T09:19:17.658Z,2.17
2022-08-29T09:22:06.726Z,2.13
2022-08-29T09:24:49.470Z,2.35
2022-08-29T09:27:24.685Z,2.30
2022-08-29T09:30:09.448Z,2.13
2022-08-29T09:33:03.371Z,2.40
2022-08-29T09:35:46.029Z,2.03
2022-08-29T09:38:22.460Z,2.27
2022-08-29T09:41:03.256Z,2.60
2022-08-29T09:43:39.641Z,2.10
2022-08-29T09:46:25.387Z,2.45
2022-08-29T09:49:12.137Z,2.00
2022-08-29T09:51:47.160Z,2.30
2022-08-29T09:54:29.118Z,2.80
2022-08-29T09:57:08.217Z,3.40
2022-08-29T09:59:49.020Z,3.60
2022-08-29T10:02:46.392Z,2.20
2022-08-29T10:05:44.580Z,2.67
2022-08-29T10:08:33.714Z,2.92
2022-08-29T10:11:06.966Z,2.45
2022-08-29T10:14:02.236Z,2.40
2022-08-29T10:17:00.938Z,2.35
2022-08-29T10:19:33.100Z,2.40
2022-08-29T10:22:38.696Z,2.45
2022-08-29T10:25:08.907Z,2.50
2022-08-29T10:27:40.886Z,2.42
2022-08-29T10:30:15.287Z,2.50
2022-08-29T10:33:16.043Z,2.58
2022-08-29T10:36:11.859Z,2.20
2022-08-29T10:38:48.357Z,2.50
2022-08-29T10:41:24.373Z,2.30
2022-08-29T10:44:26.506Z,2.30
2022-08-29T10:47:02.470Z,2.17
2022-08-29T10:50:02.677Z,2.13
2022-08-29T10:53:13.369Z,2.40
2022-08-29T10:55:55.743Z,2.40
2022-08-29T10:58:43.845Z,2.22
2022-08-29T11:01:53.099Z,1.90
2022-08-29T11:04:37.175Z,2.20
2022-08-29T11:07:33.257Z,2.15
2022-08-29T11:10:12.547Z,2.38
2022-08-29T11:13:15.008Z,2.20
2022-08-29T11:15:48.449Z,2.00
2022-08-29T11:18:29.184Z,2.17
2022-08-29T11:21:22.562Z,2.10
2022-08-29T11:23:50.224Z,2.22
2022-08-29T11:26:34.511Z,2.08
2022-08-29T11:29:24.819Z,2.10
2022-08-29T11:32:01.436Z,2.00
2022-08-29T11:34:31.696Z,2.22
2022-08-29T11:37:13.818Z,2.10
2022-08-29T11:40:15.106Z,1.88
2022-08-29T11:42:53.584Z,2.10
2022-08-29T11:45:37.572Z,1.85
2022-08-29T11:48:19.456Z,2.00
2022-08-29T11:50:47.580Z,2.00
2022-08-29T11:53:28.480Z,1.95
2022-08-29T11:56:14.476Z,2.05
2022-08-29T11:58:46.950Z,2.30
2022-08-29T12:01:35.497Z,2.00
2022-08-29T12:04:08.601Z,2.00
2022-08-29T12:06:52.467Z,2.33
2022-08-29T12:09:43.204Z,1.98
2022-08-29T12:12:17.660Z,2.33
2022-08-29T12:14:52.710Z,1.70
2022-08-29T12:17:24.693Z,1.83
2022-08-29T12:19:57.507Z,2.00
2022-08-29T12:25:28.450Z,1.80
2022-08-29T12:28:03.667Z,2.00
2022-08-29T12:30:43.219Z,1.75
2022-08-29T12:33:29.047Z,1.92
2022-08-29T12:35:59.772Z,2.15
2022-08-29T12:39:04.209Z,2.10
2022-08-29T12:41:46.933Z,1.80
2022-08-29T12:44:19.775Z,2.03
2022-08-29T12:46:55.264Z,2.05
2022-08-29T12:49:40.990Z,2.03
2022-08-29T12:52:22.065Z,2.10
2022-08-29T12:54:55.712Z,1.92
2022-08-29T12:57:37.665Z,1.88
2022-08-29T13:00:27.671Z,2.03
2022-08-29T13:03:15.190Z,1.80
2022-08-29T13:05:44.056Z,1.73
2022-08-29T13:08:15.790Z,2.05
2022-08-29T13:10:56.523Z,1.95
2022-08-29T13:13:25.632Z,1.92
2022-08-29T13:15:55.289Z,2.05
2022-08-29T13:18:23.613Z,2.20
2022-08-29T13:21:06.308Z,1.80
2022-08-29T13:23:43.850Z,1.70
2022-08-29T13:26:11.406Z,1.88
2022-08-29T13:28:54.943Z,1.92
2022-08-29T13:31:30.182Z,2.05
2022-08-29T13:33:57.769Z,1.70
2022-08-29T13:36:49.265Z,1.80
2022-08-29T13:39:16.871Z,2.08
2022-08-29T13:42:01.619Z,1.88
2022-08-29T13:44:53.804Z,1.98
2022-08-29T13:47:40.019Z,1.73
2022-08-29T13:50:10.788Z,1.90
2022-08-29T13:52:38.302Z,1.98
2022-08-29T13:55:09.899Z,1.75
2022-08-29T13:57:40.522Z,2.10
2022-08-29T14:00:09.300Z,1.95
2022-08-29T14:02:39.265Z,1.90
2022-08-29T14:05:10.869Z,2.03
2022-08-29T14:07:40.668Z,2.10
2022-08-29T14:10:09.133Z,1.73
2022-08-29T14:12:36.917Z,1.83
2022-08-29T14:15:09.595Z,1.80
2022-08-29T14:17:41.614Z,1.60
2022-08-29T14:20:10.395Z,1.70
2022-08-29T14:22:38.435Z,1.90
2022-08-29T14:25:08.359Z,1.60
2022-08-29T14:27:36.529Z,1.60
2022-08-29T14:30:06.887Z,1.70
2022-08-29T14:32:34.635Z,1.70
2022-08-29T14:35:02.758Z,2.05
2022-08-29T14:37:30.444Z,2.17
2022-08-29T14:39:59.144Z,2.22
2022-08-29T14:42:26.802Z,1.80
2022-08-29T14:44:54.391Z,4.00
2022-08-29T14:47:22.042Z,1.80
2022-08-29T14:49:49.607Z,1.70
2022-08-29T14:52:17.331Z,1.98
2022-08-29T14:54:44.886Z,1.70
2022-08-29T14:57:12.535Z,1.73
2022-08-29T14:59:40.678Z,1.70
2022-08-29T15:02:09.360Z,1.65
2022-08-29T15:04:37.951Z,1.80
2022-08-29T15:07:11.497Z,1.65
2022-08-29T15:09:40.051Z,2.00
2022-08-29T15:12:08.011Z,2.08
2022-08-29T15:14:35.729Z,1.70
2022-08-29T15:17:04.356Z,2.03
2022-08-29T15:22:21.525Z,1.85
2022-08-29T15:24:50.739Z,1.95
2022-08-29T15:27:24.899Z,2.30
2022-08-29T15:29:55.224Z,2.10
2022-08-29T15:32:23.302Z,2.20
2022-08-29T15:34:51.413Z,2.38
2022-08-29T15:37:19.072Z,2.55
2022-08-29T15:39:46.824Z,2.40
2022-08-29T15:42:17.284Z,2.80
2022-08-29T15:44:45.481Z,2.83
2022-08-29T15:47:13.139Z,2.72
2022-08-29T15:49:42.033Z,2.42
2022-08-29T15:52:11.997Z,2.70
2022-08-29T15:54:40.112Z,2.60
2022-08-29T15:57:08.118Z,2.70
2022-08-29T16:07:00.280Z,3.42
2022-08-29T16:09:28.227Z,3.03
2022-08-29T16:11:59.263Z,3.13
2022-08-29T16:17:23.350Z,3.50
2022-08-29T16:19:51.188Z,3.67
2022-08-29T16:22:47.414Z,3.85
2022-08-29T16:28:57.370Z,3.80
2022-08-29T16:31:25.292Z,3.75
2022-08-29T16:33:53.089Z,3.90
2022-08-29T16:40:35.586Z,3.30
2022-08-29T16:43:04.475Z,3.80
2022-08-29T16:45:36.925Z,4.10
2022-08-29T16:51:38.559Z,4.00
2022-08-29T16:54:06.399Z,4.00
2022-08-29T16:56:34.006Z,3.97
2022-08-29T17:03:21.079Z,4.25
2022-08-29T17:05:48.802Z,3.88
2022-08-29T17:08:17.322Z,4.53
2022-08-29T17:10:46.898Z,4.25
2022-08-29T17:13:24.685Z,4.78
2022-08-29T17:15:52.761Z,4.72
2022-08-29T17:18:20.409Z,4.28
2022-08-29T17:28:41.515Z,4.43
2022-08-29T17:31:09.387Z,4.35
2022-08-29T17:33:37.006Z,4.82
2022-08-29T17:36:05.917Z,4.40
2022-08-29T17:38:33.828Z,4.40
2022-08-29T17:41:04.404Z,4.95
2022-08-29T17:43:43.377Z,4.47
2022-08-29T17:46:10.995Z,4.10
2022-08-29T17:48:38.762Z,4.20
2022-08-29T17:51:06.976Z,4.47
2022-08-29T17:53:34.986Z,4.30
2022-08-29T17:56:20.980Z,4.50
2022-08-29T17:58:48.642Z,4.60
2022-08-29T18:01:17.109Z,4.82
2022-08-29T18:03:45.544Z,5.20
2022-08-29T18:06:14.607Z,5.28
2022-08-29T18:08:47.793Z,4.68
2022-08-29T18:11:16.746Z,5.10
2022-08-29T18:13:44.958Z,5.15
2022-08-29T18:16:14.892Z,5.93
2022-08-29T18:18:42.681Z,5.28
2022-08-29T18:21:11.756Z,5.78
2022-08-29T18:23:42.065Z,5.63
2022-08-29T18:26:09.672Z,5.10
2022-08-29T18:28:37.220Z,4.65
2022-08-29T18:31:05.107Z,4.93
2022-08-29T18:33:50.289Z,5.75
2022-08-29T18:36:20.392Z,5.47
2022-08-29T18:38:48.049Z,5.18
2022-08-29T18:41:15.730Z,5.22
2022-08-29T18:43:43.678Z,5.03
2022-08-29T18:46:11.868Z,4.88
2022-08-29T18:48:39.484Z,5.85
2022-08-29T18:51:07.119Z,4.82
2022-08-29T18:53:34.779Z,5.30
2022-08-29T18:56:02.657Z,4.97
2022-08-29T18:58:32.894Z,5.18
2022-08-29T19:01:13.740Z,5.05
2022-08-29T19:03:41.672Z,5.35
2022-08-29T19:06:09.702Z,5.05
2022-08-29T19:08:38.981Z,4.97
2022-08-29T19:11:07.487Z,5.53
2022-08-29T19:13:35.641Z,5.18
2022-08-29T19:16:04.874Z,5.28
2022-08-29T19:18:32.993Z,5.22
2022-08-29T19:21:00.958Z,5.50
2022-08-29T19:23:31.813Z,5.32
2022-08-29T19:26:00.418Z,5.55
2022-08-29T19:28:28.202Z,5.50
2022-08-29T19:30:55.804Z,4.90
2022-08-29T19:33:24.025Z,5.70
2022-08-29T19:35:52.169Z,5.25
2022-08-29T19:38:21.673Z,5.00
2022-08-29T19:40:50.211Z,5.30
2022-08-29T19:43:18.020Z,5.20
2022-08-29T19:45:45.757Z,5.10
2022-08-29T19:48:15.414Z,7.45
2022-08-29T19:50:47.526Z,5.90
2022-08-29T19:53:24.611Z,5.47
2022-08-29T19:55:56.064Z,5.78
2022-08-29T19:58:31.886Z,6.45
2022-08-29T20:01:06.984Z,6.57
2022-08-29T20:03:39.789Z,5.68
2022-08-29T20:06:07.794Z,5.38
2022-08-29T20:08:42.363Z,5.53
2022-08-29T20:11:19.498Z,5.03
2022-08-29T20:13:51.462Z,4.97
2022-08-29T20:16:22.387Z,5.38
2022-08-29T20:18:50.941Z,6.22
2022-08-29T20:21:19.951Z,7.45
2022-08-29T20:23:49.462Z,6.15
2022-08-29T20:26:21.981Z,5.82
2022-08-29T20:28:51.366Z,5.20
2022-08-29T20:31:20.456Z,5.30
2022-08-29T20:33:48.493Z,5.20
2022-08-29T20:36:18.374Z,5.30
2022-08-29T20:38:46.069Z,5.22
2022-08-29T20:41:13.944Z,7.72
2022-08-29T20:43:48.659Z,13.68
2022-08-29T20:46:16.380Z,14.97
2022-08-29T20:48:43.939Z,12.98
2022-08-29T20:51:11.717Z,12.05
2022-08-29T20:53:41.007Z,11.80
2022-08-29T20:56:08.670Z,10.83
2022-08-29T20:58:36.661Z,10.30
2022-08-29T21:01:04.790Z,8.50
2022-08-29T21:03:32.476Z,6.60
2022-08-29T21:06:00.291Z,6.53
2022-08-29T21:08:27.993Z,6.70
2022-08-29T21:10:55.593Z,6.38
2022-08-29T21:13:23.295Z,6.37
2022-08-29T21:15:51.167Z,6.27
2022-08-29T21:18:20.951Z,6.13
2022-08-29T21:20:53.752Z,6.17
2022-08-29T21:23:24.134Z,5.90
2022-08-29T21:25:57.120Z,6.20
2022-08-29T21:28:25.947Z,5.53
2022-08-29T21:30:55.150Z,5.33
2022-08-29T21:33:22.890Z,5.37
2022-08-29T21:35:50.704Z,5.90
2022-08-29T21:38:18.417Z,5.63
2022-08-29T21:40:50.948Z,5.27
2022-08-29T21:43:19.952Z,4.97
2022-08-29T21:45:48.501Z,5.17
2022-08-29T21:48:16.181Z,5.10
2022-08-29T21:50:43.923Z,5.13
2022-08-29T21:53:13.852Z,5.30
2022-08-29T21:55:42.931Z,5.50
2022-08-29T21:58:10.514Z,5.17
2022-08-29T22:00:38.530Z,4.90
2022-08-29T22:03:08.109Z,5.27
2022-08-29T22:05:35.781Z,6.10
2022-08-29T22:08:07.825Z,6.03
2022-08-29T22:10:41.744Z,5.40
2022-08-29T22:13:09.521Z,5.57
2022-08-29T22:15:37.132Z,5.70
2022-08-29T22:18:05.447Z,5.73
2022-08-29T22:20:33.228Z,5.30
2022-08-29T22:23:00.832Z,4.77
2022-08-29T22:25:28.446Z,5.17
2022-08-29T22:27:56.007Z,5.03
2022-08-29T22:30:32.168Z,5.20
2022-08-29T22:33:01.072Z,5.17
2022-08-29T22:35:29.113Z,5.37
2022-08-29T22:37:56.770Z,5.17
2022-08-29T22:40:24.994Z,5.30
2022-08-29T22:42:52.998Z,6.13
2022-08-29T22:45:21.961Z,5.30
2022-08-29T22:47:49.688Z,5.30
2022-08-29T22:50:21.010Z,5.17
2022-08-29T22:52:49.379Z,5.67
2022-08-29T22:57:48.444Z,5.03
2022-08-29T23:00:20.816Z,5.23
2022-08-29T23:02:50.182Z,5.70
2022-08-29T23:05:19.405Z,5.23
2022-08-29T23:07:47.808Z,4.70
2022-08-29T23:10:15.675Z,5.30
2022-08-29T23:12:43.534Z,5.50
2022-08-29T23:15:14.899Z,5.07
2022-08-29T23:17:42.440Z,5.10
2022-08-29T23:20:12.531Z,5.30
2022-08-29T23:22:40.612Z,5.20
2022-08-29T23:25:12.407Z,5.30
2022-08-29T23:27:40.295Z,5.43
2022-08-29T23:30:11.563Z,5.03
2022-08-29T23:32:39.252Z,5.03
2022-08-29T23:35:07.872Z,5.50
2022-08-29T23:37:35.414Z,5.10
2022-08-29T23:40:03.723Z,5.17
2022-08-29T23:42:32.278Z,5.33
2022-08-29T23:44:59.875Z,5.33
2022-08-29T23:47:27.493Z,5.07
2022-08-29T23:49:55.047Z,5.60
2022-08-29T23:52:22.556Z,5.17
2022-08-29T23:54:50.121Z,5.10
2022-08-29T23:57:17.678Z,4.73
2022-08-29T23:59:45.257Z,5.30
